Time;durP1;ratioP1;P1;durP2;ratioP2;P2;SDS_P1;SDS_P2;PMS_P1;PMS_P2;Temp;Humidity;BMP_temperature;BMP_pressure;BME280_temperature;BME280_humidity;BME280_pressure;Samples;Min_cycle;Max_cycle;Signal;HPM_P1;HPM_P2
2022/07/26 00:00:24;;;;;;;6.63;3.20;;;;;;;20.78;100.00;100504.81;5096358;28;20551;-76
2022/07/26 00:02:51;;;;;;;6.50;3.40;;;;;;;20.84;100.00;100516.28;5096383;28;20527;-76
2022/07/26 00:05:18;;;;;;;5.37;3.47;;;;;;;20.86;100.00;100508.47;5096344;28;20475;-76
2022/07/26 00:07:45;;;;;;;6.87;3.30;;;;;;;20.83;100.00;100504.47;5096205;28;20512;-76
2022/07/26 00:10:12;;;;;;;8.03;3.57;;;;;;;20.81;100.00;100506.81;5095981;28;20929;-76
2022/07/26 00:12:41;;;;;;;7.60;3.73;;;;;;;20.83;100.00;100495.44;5096195;28;20444;-76
2022/07/26 00:15:10;;;;;;;7.53;3.30;;;;;;;20.82;100.00;100488.34;5096185;28;20519;-76
2022/07/26 00:17:37;;;;;;;6.27;3.00;;;;;;;20.77;100.00;100499.69;5096111;28;20460;-76
2022/07/26 00:20:04;;;;;;;9.13;3.30;;;;;;;20.75;100.00;100505.53;5096010;28;20456;-76
2022/07/26 00:22:34;;;;;;;5.50;2.70;;;;;;;20.76;100.00;100512.66;5096025;28;20447;-76
2022/07/26 00:25:01;;;;;;;5.03;3.03;;;;;;;20.78;100.00;100506.78;5095962;28;20432;-76
2022/07/26 00:27:27;;;;;;;6.00;3.50;;;;;;;20.78;100.00;100502.06;5095868;28;20522;-76
2022/07/26 00:29:55;;;;;;;13.90;3.13;;;;;;;20.79;100.00;100503.63;5096056;28;20495;-76
2022/07/26 00:32:22;;;;;;;5.80;3.17;;;;;;;20.81;100.00;100501.31;5095971;28;20468;-76
2022/07/26 00:34:50;;;;;;;6.73;3.60;;;;;;;20.84;100.00;100503.31;5095917;28;20535;-76
2022/07/26 00:37:17;;;;;;;5.77;3.37;;;;;;;20.87;100.00;100499.81;5095719;28;20440;-76
2022/07/26 00:39:43;;;;;;;6.97;3.57;;;;;;;20.90;100.00;100512.84;5095641;28;20550;-76
2022/07/26 00:42:10;;;;;;;7.80;3.73;;;;;;;20.89;100.00;100519.53;5095361;28;20531;-75
2022/07/26 00:44:38;;;;;;;7.00;4.30;;;;;;;20.89;100.00;100532.47;5095920;28;20685;-74
2022/07/26 00:47:06;;;;;;;6.70;3.83;;;;;;;20.88;100.00;100542.69;5095477;28;20570;-74
2022/07/26 00:49:33;;;;;;;7.30;3.77;;;;;;;20.86;100.00;100534.03;5095384;28;20440;-75
2022/07/26 00:51:59;;;;;;;11.33;4.73;;;;;;;20.81;100.00;100528.06;5095205;28;20532;-77
2022/07/26 00:54:26;;;;;;;5.57;3.47;;;;;;;20.74;100.00;100512.22;5094874;28;20435;-74
2022/07/26 00:56:53;;;;;;;7.60;3.67;;;;;;;20.69;100.00;100522.75;5095368;28;20432;-74
2022/07/26 00:59:20;;;;;;;7.77;5.00;;;;;;;20.69;100.00;100534.56;5095272;28;20491;-74
2022/07/26 01:01:47;;;;;;;9.20;4.87;;;;;;;20.67;100.00;100534.13;5095180;28;20544;-74
2022/07/26 01:04:15;;;;;;;8.10;4.37;;;;;;;20.69;100.00;100531.81;5095200;28;20428;-74
2022/07/26 01:06:42;;;;;;;8.50;3.93;;;;;;;20.65;100.00;100523.50;5095108;28;20531;-74
2022/07/26 01:09:09;;;;;;;6.97;3.60;;;;;;;20.64;100.00;100526.63;5095151;28;20870;-74
2022/07/26 01:11:36;;;;;;;7.80;5.00;;;;;;;20.62;100.00;100518.72;5094610;28;20556;-73
2022/07/26 01:14:03;;;;;;;6.67;3.90;;;;;;;20.62;100.00;100523.44;5095014;28;20535;-74
2022/07/26 01:16:29;;;;;;;7.10;3.50;;;;;;;20.58;100.00;100528.09;5094903;28;20520;-73
2022/07/26 01:18:56;;;;;;;8.60;3.03;;;;;;;20.53;100.00;100523.69;5094891;28;20549;-74
2022/07/26 01:21:29;;;;;;;9.20;3.83;;;;;;;20.48;100.00;100534.25;5094469;28;20542;-74
2022/07/26 01:23:56;;;;;;;5.23;3.10;;;;;;;20.48;100.00;100537.78;5094561;28;20467;-74
2022/07/26 01:26:22;;;;;;;6.60;3.60;;;;;;;20.48;100.00;100542.50;5094907;28;20528;-74
2022/07/26 01:28:49;;;;;;;6.67;3.77;;;;;;;20.45;100.00;100532.19;5094584;28;20580;-73
2022/07/26 01:31:16;;;;;;;5.00;3.37;;;;;;;20.44;100.00;100547.91;5094338;28;20452;-73
2022/07/26 01:33:43;;;;;;;6.33;3.43;;;;;;;20.48;100.00;100551.53;5094707;28;20440;-74
2022/07/26 01:36:11;;;;;;;5.50;2.60;;;;;;;20.50;100.00;100545.69;5094590;28;20803;-74
2022/07/26 01:38:39;;;;;;;6.40;3.63;;;;;;;20.49;100.00;100542.13;5094534;28;20497;-74
2022/07/26 01:41:06;;;;;;;6.77;3.80;;;;;;;20.47;100.00;100538.13;5094472;28;20539;-73
2022/07/26 01:43:32;;;;;;;5.17;2.70;;;;;;;20.42;100.00;100548.28;5094410;28;20527;-73
2022/07/26 01:45:59;;;;;;;6.50;3.20;;;;;;;20.41;100.00;100549.44;5094373;28;20524;-74
2022/07/26 01:48:26;;;;;;;9.93;4.50;;;;;;;20.40;100.00;100547.84;5094243;28;20487;-73
2022/07/26 01:50:52;;;;;;;5.70;3.30;;;;;;;20.39;100.00;100543.50;5093912;28;21045;-74
2022/07/26 01:53:19;;;;;;;5.13;3.47;;;;;;;20.38;100.00;100538.38;5094215;28;20487;-74
2022/07/26 01:55:47;;;;;;;6.50;3.30;;;;;;;20.42;100.00;100547.50;5093922;28;20543;-73
2022/07/26 01:58:14;;;;;;;5.40;3.00;;;;;;;20.44;100.00;100555.38;5093876;28;20519;-74
2022/07/26 02:00:40;;;;;;;5.97;3.30;;;;;;;20.38;100.00;100550.19;5094275;28;20457;-73
2022/07/26 02:03:07;;;;;;;5.67;3.47;;;;;;;20.37;100.00;100565.09;5094088;28;20494;-74
2022/07/26 02:05:34;;;;;;;6.20;3.30;;;;;;;20.31;100.00;100558.31;5092849;28;20527;-74
2022/07/26 02:08:01;;;;;;;4.67;3.00;;;;;;;20.33;100.00;100555.22;5093866;28;20575;-74
2022/07/26 02:10:59;;;;;;;7.07;3.33;;;;;;;20.29;100.00;100568.91;5093470;28;21244;-74
2022/07/26 02:13:18;;;;;;;5.00;2.93;;;;;;;20.25;100.00;100556.25;5093481;28;20444;-74
2022/07/26 02:15:44;;;;;;;5.40;2.90;;;;;;;20.22;100.00;100544.00;5093956;28;20464;-74
2022/07/26 02:18:11;;;;;;;5.03;2.47;;;;;;;20.15;100.00;100561.19;5093581;28;20536;-74
2022/07/26 02:20:37;;;;;;;5.73;2.97;;;;;;;20.14;100.00;100559.63;5093682;28;20460;-73
2022/07/26 02:23:04;;;;;;;5.00;2.10;;;;;;;20.17;100.00;100563.56;5093471;28;20483;-74
2022/07/26 02:25:31;;;;;;;5.97;3.20;;;;;;;20.12;100.00;100563.88;5093666;28;20483;-74
2022/07/26 02:27:59;;;;;;;5.83;3.27;;;;;;;20.11;100.00;100552.09;5093597;28;20929;-74
2022/07/26 02:30:28;;;;;;;5.03;2.93;;;;;;;20.08;100.00;100541.81;5093592;28;20460;-73
2022/07/26 02:32:54;;;;;;;5.00;2.50;;;;;;;20.05;100.00;100541.75;5093592;28;20524;-74
2022/07/26 02:35:21;;;;;;;4.33;2.90;;;;;;;19.99;100.00;100545.97;5093320;28;20451;-74
2022/07/26 02:37:48;;;;;;;5.10;2.77;;;;;;;19.98;100.00;100547.94;5093319;28;20999;-75
2022/07/26 02:40:14;;;;;;;5.50;3.40;;;;;;;19.95;100.00;100542.34;5093238;28;20543;-74
2022/07/26 02:42:41;;;;;;;5.10;3.07;;;;;;;19.94;100.00;100543.53;5093187;28;20483;-74
2022/07/26 02:45:09;;;;;;;5.50;3.47;;;;;;;19.93;100.00;100541.94;5093585;28;20531;-76
2022/07/26 02:47:45;;;;;;;6.40;2.87;;;;;;;19.89;100.00;100539.13;5093348;28;20480;-74
2022/07/26 02:50:12;;;;;;;7.30;3.80;;;;;;;19.87;100.00;100547.72;5093338;28;20547;-71
2022/07/26 02:52:38;;;;;;;5.70;3.03;;;;;;;19.85;100.00;100544.56;5093361;28;20475;-72
2022/07/26 02:55:06;;;;;;;6.67;2.97;;;;;;;19.83;100.00;100552.38;5093315;28;20522;-73
2022/07/26 02:57:33;;;;;;;6.37;3.70;;;;;;;19.82;100.00;100544.47;5093287;28;20516;-73
2022/07/26 02:59:59;;;;;;;9.40;3.33;;;;;;;19.81;100.00;100553.91;5093247;28;20539;-73
2022/07/26 03:02:26;;;;;;;6.77;3.27;;;;;;;19.81;100.00;100551.94;5093247;28;20526;-72
2022/07/26 03:04:54;;;;;;;5.37;2.90;;;;;;;19.80;100.00;100557.81;5093275;28;20479;-73
2022/07/26 03:07:20;;;;;;;5.93;3.37;;;;;;;19.77;100.00;100559.31;5093090;28;20479;-72
2022/07/26 03:09:47;;;;;;;6.97;3.60;;;;;;;19.75;100.00;100552.63;5092992;28;20472;-72
2022/07/26 03:12:13;;;;;;;5.30;2.93;;;;;;;19.72;100.00;100550.59;5093243;28;20512;-72
2022/07/26 03:14:40;;;;;;;5.80;3.30;;;;;;;19.71;100.00;100549.00;5093143;28;20440;-73
2022/07/26 03:17:07;;;;;;;6.03;3.50;;;;;;;19.64;100.00;100547.69;5095026;28;20447;-72
2022/07/26 03:19:33;;;;;;;5.50;3.20;;;;;;;19.61;100.00;100558.59;5097144;28;20443;-72
2022/07/26 03:22:01;;;;;;;5.50;3.20;;;;;;;19.57;100.00;100563.22;5097412;28;20447;-72
2022/07/26 03:24:28;;;;;;;6.40;3.03;;;;;;;19.53;100.00;100557.66;5096766;28;21161;-72
2022/07/26 03:26:54;;;;;;;5.10;3.20;;;;;;;19.51;100.00;100561.91;5097148;28;20475;-73
2022/07/26 03:29:21;;;;;;;4.60;2.73;;;;;;;19.48;100.00;100557.13;5096683;28;20579;-73
2022/07/26 03:31:47;;;;;;;6.40;3.23;;;;;;;19.44;100.00;100561.78;5097173;28;20543;-74
2022/07/26 03:34:14;;;;;;;11.17;3.60;;;;;;;19.43;100.00;100558.22;5096929;28;20444;-73
2022/07/26 03:36:42;;;;;;;5.33;2.90;;;;;;;19.40;100.00;100565.25;5096549;28;20428;-73
2022/07/26 03:39:10;;;;;;;4.07;2.53;;;;;;;19.38;100.00;100556.56;5096767;28;20490;-73
2022/07/26 03:41:37;;;;;;;9.23;3.13;;;;;;;19.30;100.00;100562.25;5096664;28;20547;-74
2022/07/26 03:44:04;;;;;;;6.60;2.90;;;;;;;19.27;100.00;100563.78;5096500;28;20472;-73
2022/07/26 03:46:31;;;;;;;4.73;2.17;;;;;;;19.30;100.00;100568.56;5096432;28;21020;-73
2022/07/26 03:48:58;;;;;;;6.67;3.23;;;;;;;19.27;100.00;100566.53;5096638;28;20514;-73
2022/07/26 03:51:24;;;;;;;5.13;2.57;;;;;;;19.27;100.00;100563.78;5096499;28;20507;-72
2022/07/26 03:53:51;;;;;;;4.83;2.73;;;;;;;19.24;100.00;100570.00;5096618;28;20446;-74
2022/07/26 03:56:34;;;;;;;5.30;3.03;;;;;;;19.22;100.00;100566.03;5096182;28;20993;-74
2022/07/26 03:59:02;;;;;;;7.17;2.13;;;;;;;19.20;100.00;100571.06;5096615;28;20523;-74
2022/07/26 04:01:30;;;;;;;5.80;3.30;;;;;;;19.15;100.00;100572.94;5096470;28;20464;-74
2022/07/26 04:03:56;;;;;;;3.30;1.70;;;;;;;19.15;100.00;100569.41;5096115;28;20531;-73
2022/07/26 04:06:23;;;;;;;5.40;2.73;;;;;;;19.16;100.00;100571.00;5096028;28;20450;-74
2022/07/26 04:08:50;;;;;;;5.13;2.60;;;;;;;19.11;100.00;100565.78;5096243;28;20566;-74
2022/07/26 04:11:16;;;;;;;11.20;2.37;;;;;;;19.09;100.00;100571.66;5096044;28;20464;-73
2022/07/26 04:13:44;;;;;;;3.20;1.90;;;;;;;19.08;100.00;100570.06;5096183;28;20483;-73
2022/07/26 04:16:11;;;;;;;6.33;2.40;;;;;;;19.07;100.00;100571.19;5095826;28;20447;-74
2022/07/26 04:18:38;;;;;;;3.63;2.03;;;;;;;19.05;100.00;100575.47;5096099;28;20866;-74
2022/07/26 04:21:05;;;;;;;4.10;1.93;;;;;;;18.97;100.00;100569.03;5095704;28;21016;-73
2022/07/26 04:23:31;;;;;;;3.57;2.03;;;;;;;19.02;100.00;100573.44;5096020;28;20478;-73
2022/07/26 04:25:58;;;;;;;5.30;2.80;;;;;;;19.02;100.00;100570.69;5095964;28;20444;-74
2022/07/26 04:28:27;;;;;;;3.80;1.90;;;;;;;19.02;100.00;100576.19;5095216;28;20669;-74
2022/07/26 04:30:55;;;;;;;6.30;1.97;;;;;;;19.05;100.00;100572.72;5095844;28;20491;-73
2022/07/26 04:33:22;;;;;;;5.97;2.37;;;;;;;19.05;100.00;100568.03;5095771;28;20484;-73
2022/07/26 04:35:48;;;;;;;5.30;2.60;;;;;;;19.06;100.00;100574.31;5095764;28;20440;-73
2022/07/26 04:38:15;;;;;;;5.83;2.80;;;;;;;19.04;100.00;100571.94;5095582;28;20515;-73
2022/07/26 04:40:42;;;;;;;5.07;2.07;;;;;;;19.10;100.00;100575.97;5095313;28;20973;-73
2022/07/26 04:43:09;;;;;;;3.90;2.13;;;;;;;19.09;100.00;100568.13;5095662;28;20475;-73
2022/07/26 04:45:36;;;;;;;6.30;1.90;;;;;;;19.15;100.00;100572.16;5095580;28;20472;-73
2022/07/26 04:48:04;;;;;;;4.37;2.37;;;;;;;19.20;100.00;100566.38;5095542;28;20491;-73
2022/07/26 04:50:31;;;;;;;6.67;2.50;;;;;;;19.19;100.00;100573.03;5095083;28;20543;-73
2022/07/26 04:52:57;;;;;;;8.00;2.00;;;;;;;19.23;100.00;100578.59;5095484;28;20515;-74
2022/07/26 04:55:24;;;;;;;4.40;2.17;;;;;;;19.24;100.00;100578.25;5095499;28;20532;-74
2022/07/26 04:57:51;;;;;;;4.27;2.10;;;;;;;19.25;100.00;100571.59;5095656;28;20862;-74
2022/07/26 05:00:23;;;;;;;7.10;1.90;;;;;;;19.33;100.00;100584.31;5094931;28;20531;-74
2022/07/26 05:02:51;;;;;;;4.97;2.00;;;;;;;19.33;98.85;100583.53;5095004;28;20961;-74
2022/07/26 05:05:19;;;;;;;5.00;2.13;;;;;;;19.40;98.09;100583.69;5095196;28;20857;-74
2022/07/26 05:07:47;;;;;;;6.83;1.97;;;;;;;19.40;98.25;100583.69;5095081;28;20451;-74
2022/07/26 05:10:17;;;;;;;3.70;2.10;;;;;;;19.45;98.36;100586.13;5094850;28;20571;-74
2022/07/26 05:12:45;;;;;;;3.50;2.10;;;;;;;19.49;98.25;100586.22;5096354;28;20425;-74
2022/07/26 05:15:12;;;;;;;18.50;3.00;;;;;;;19.55;98.99;100584.75;5095028;28;20460;-74
2022/07/26 05:17:39;;;;;;;5.03;2.27;;;;;;;19.55;99.74;100584.75;5094930;28;20516;-73
2022/07/26 05:20:07;;;;;;;8.20;2.10;;;;;;;19.58;98.87;100584.06;5094541;28;20492;-74
2022/07/26 05:22:35;;;;;;;4.00;2.00;;;;;;;19.61;98.07;100588.84;5094898;28;20531;-74
2022/07/26 05:25:04;;;;;;;5.53;2.13;;;;;;;19.63;97.28;100587.31;5094828;28;20523;-74
2022/07/26 05:27:31;;;;;;;5.80;2.00;;;;;;;19.68;97.09;100583.50;5094761;28;20543;-75
2022/07/26 05:29:57;;;;;;;4.33;2.73;;;;;;;19.74;95.09;100595.78;5094287;28;20566;-75
2022/07/26 05:32:24;;;;;;;4.50;1.70;;;;;;;19.78;93.79;100601.34;5094666;28;20531;-74
2022/07/26 05:34:51;;;;;;;3.53;1.80;;;;;;;19.82;93.19;100603.00;5094586;28;20527;-75
2022/07/26 05:37:17;;;;;;;3.23;1.77;;;;;;;19.82;94.79;100608.50;5094246;28;20950;-75
2022/07/26 05:39:45;;;;;;;4.30;1.77;;;;;;;19.87;92.12;100602.69;5094403;28;20447;-74
2022/07/26 05:42:12;;;;;;;4.63;2.30;;;;;;;19.90;92.45;100603.94;5094184;28;20995;-74
2022/07/26 05:44:38;;;;;;;7.43;1.70;;;;;;;19.96;92.15;100607.19;5094467;28;20475;-75
2022/07/26 05:47:05;;;;;;;8.00;2.23;;;;;;;20.06;90.68;100609.34;5094388;28;20479;-73
2022/07/26 05:49:32;;;;;;;3.90;1.50;;;;;;;20.14;89.62;100617.38;5093915;28;20831;-76
2022/07/26 05:51:58;;;;;;;3.47;1.63;;;;;;;20.23;89.09;100622.66;5094999;28;20838;-77
2022/07/26 05:54:25;;;;;;;4.60;2.00;;;;;;;20.32;86.52;100616.88;5094304;28;20470;-71
2022/07/26 05:56:53;;;;;;;6.23;1.50;;;;;;;20.30;87.06;100620.00;5094246;28;20523;-69
2022/07/26 05:59:20;;;;;;;3.97;1.43;;;;;;;20.32;86.55;100617.69;5093883;28;20921;-69
2022/07/26 06:01:46;;;;;;;13.90;1.80;;;;;;;20.29;85.76;100618.41;5094062;28;20544;-75
2022/07/26 06:04:14;;;;;;;3.37;1.80;;;;;;;20.47;84.48;100618.72;5094096;28;20523;-70
2022/07/26 06:06:41;;;;;;;2.37;1.07;;;;;;;20.50;85.00;100617.25;5094058;28;20444;-71
2022/07/26 06:09:07;;;;;;;4.20;1.33;;;;;;;20.55;85.20;100622.44;5093942;28;21001;-71
2022/07/26 06:11:34;;;;;;;2.60;1.10;;;;;;;20.59;85.27;100626.03;5093852;28;20848;-72
2022/07/26 06:14:02;;;;;;;3.23;1.43;;;;;;;20.56;83.91;100622.06;5094012;28;20515;-73
2022/07/26 06:16:29;;;;;;;4.97;1.67;;;;;;;20.58;84.92;100629.94;5093563;28;20531;-73
2022/07/26 06:18:56;;;;;;;3.23;1.00;;;;;;;20.68;84.76;100623.81;5093873;28;20519;-72
2022/07/26 06:21:22;;;;;;;3.47;1.10;;;;;;;20.77;83.84;100626.31;5093756;28;20491;-70
2022/07/26 06:23:50;;;;;;;3.20;1.60;;;;;;;20.80;84.19;100633.84;5093720;28;20476;-71
2022/07/26 06:26:16;;;;;;;5.13;1.40;;;;;;;20.80;83.51;100631.06;5093864;28;20539;-70
2022/07/26 06:28:43;;;;;;;8.33;1.67;;;;;;;20.78;84.06;100644.44;5093656;28;20607;-70
2022/07/26 06:31:11;;;;;;;6.27;1.40;;;;;;;20.72;84.78;100646.72;5093280;28;20460;-69
2022/07/26 06:33:38;;;;;;;3.90;1.23;;;;;;;20.82;83.46;100646.06;5093740;28;20555;-70
2022/07/26 06:36:05;;;;;;;4.37;1.60;;;;;;;20.85;83.02;100639.84;5093604;28;20523;-71
2022/07/26 06:38:32;;;;;;;3.43;1.43;;;;;;;20.86;84.31;100641.41;5093538;28;20472;-71
2022/07/26 06:40:58;;;;;;;2.30;1.00;;;;;;;20.83;83.27;100638.59;5093505;28;20460;-71
2022/07/26 06:43:25;;;;;;;9.50;1.40;;;;;;;20.88;82.07;100638.28;5093439;28;20527;-70
2022/07/26 06:45:51;;;;;;;2.90;1.30;;;;;;;20.89;81.91;100643.44;5093115;28;20996;-70
2022/07/26 06:48:19;;;;;;;3.50;1.40;;;;;;;20.92;81.72;100648.19;5093361;28;20515;-70
2022/07/26 06:50:46;;;;;;;3.13;1.40;;;;;;;20.96;82.60;100655.72;5092838;28;20488;-70
2022/07/26 06:53:13;;;;;;;3.47;1.00;;;;;;;21.01;80.71;100652.66;5093226;28;20520;-70
2022/07/26 06:55:40;;;;;;;3.03;1.13;;;;;;;20.97;82.43;100649.84;5093361;28;20442;-70
2022/07/26 06:58:07;;;;;;;4.53;1.00;;;;;;;21.02;81.33;100652.28;5093367;28;20527;-70
2022/07/26 07:00:34;;;;;;;3.13;1.20;;;;;;;21.03;82.29;100647.56;5092918;28;20543;-74
2022/07/26 07:03:00;;;;;;;2.70;1.10;;;;;;;21.07;81.86;100653.91;5093281;28;20875;-72
2022/07/26 07:05:28;;;;;;;3.13;1.37;;;;;;;21.13;81.57;100650.50;5093315;28;20543;-72
2022/07/26 07:07:55;;;;;;;2.80;1.13;;;;;;;21.21;80.32;100654.16;5093304;28;20531;-75
2022/07/26 07:10:21;;;;;;;3.00;0.80;;;;;;;21.16;79.33;100655.25;5092789;28;20568;-74
2022/07/26 07:12:48;;;;;;;2.87;1.13;;;;;;;21.23;79.06;100654.56;5093181;28;20450;-74
2022/07/26 07:15:15;;;;;;;2.73;1.00;;;;;;;21.26;78.85;100667.59;5092883;28;20519;-75
2022/07/26 07:17:41;;;;;;;8.17;1.90;;;;;;;21.38;78.30;100656.41;5093110;28;20468;-75
2022/07/26 07:20:08;;;;;;;2.60;0.87;;;;;;;21.53;77.05;100662.09;5092707;28;20500;-75
2022/07/26 07:22:36;;;;;;;2.40;0.87;;;;;;;21.54;77.09;100658.97;5093170;28;20450;-74
2022/07/26 07:25:03;;;;;;;2.67;1.03;;;;;;;21.59;76.87;100664.13;5092749;28;20531;-74
2022/07/26 07:27:30;;;;;;;8.20;1.33;;;;;;;21.63;76.99;100667.72;5093105;28;20527;-74
2022/07/26 07:29:57;;;;;;;2.70;0.90;;;;;;;21.67;76.43;100670.53;5092927;28;20670;-74
2022/07/26 07:32:23;;;;;;;3.17;1.00;;;;;;;21.78;77.43;100665.16;5093004;28;20443;-73
2022/07/26 07:34:50;;;;;;;3.90;1.27;;;;;;;21.83;76.41;100668.41;5093039;28;20530;-73
2022/07/26 07:37:18;;;;;;;2.80;0.87;;;;;;;21.92;75.77;100671.66;5093047;28;20511;-74
2022/07/26 07:39:45;;;;;;;3.40;1.03;;;;;;;22.00;74.45;100666.19;5092544;28;20468;-73
2022/07/26 07:42:12;;;;;;;5.37;1.30;;;;;;;22.10;74.61;100669.09;5092976;28;20527;-74
2022/07/26 07:44:40;;;;;;;2.40;0.93;;;;;;;22.26;74.12;100668.09;5092914;28;20532;-73
2022/07/26 07:47:07;;;;;;;4.60;1.37;;;;;;;22.54;72.61;100662.09;5093213;28;20443;-73
2022/07/26 07:49:34;;;;;;;2.70;1.00;;;;;;;22.72;71.87;100651.97;5092716;28;21012;-74
2022/07/26 07:52:01;;;;;;;3.40;1.13;;;;;;;22.81;72.61;100659.94;5092562;28;20969;-73
2022/07/26 07:54:27;;;;;;;2.80;1.30;;;;;;;22.98;72.73;100672.34;5092810;28;20460;-73
2022/07/26 07:56:55;;;;;;;5.07;1.17;;;;;;;22.97;69.60;100659.69;5092880;28;20443;-74
2022/07/26 07:59:22;;;;;;;3.73;1.20;;;;;;;22.95;69.74;100657.31;5092428;28;20998;-73
2022/07/26 08:01:49;;;;;;;2.40;0.73;;;;;;;22.80;69.98;100659.16;5092394;28;20548;-73
2022/07/26 08:04:16;;;;;;;2.93;1.00;;;;;;;22.81;69.65;100660.72;5094647;28;20511;-74
2022/07/26 08:06:42;;;;;;;3.40;0.83;;;;;;;22.74;69.72;100665.41;5096175;28;20487;-74
2022/07/26 08:09:09;;;;;;;2.70;0.90;;;;;;;22.75;69.26;100667.78;5096254;28;20567;-73
2022/07/26 08:11:35;;;;;;;3.10;0.93;;;;;;;22.76;68.79;100668.59;5096146;28;20468;-73
2022/07/26 08:14:03;;;;;;;2.30;0.80;;;;;;;22.74;69.25;100663.44;5096054;28;20527;-75
2022/07/26 08:16:30;;;;;;;3.63;0.97;;;;;;;22.72;70.86;100671.31;5095588;28;20472;-74
2022/07/26 08:18:57;;;;;;;4.47;0.93;;;;;;;22.72;69.58;100676.84;5095608;28;20936;-72
2022/07/26 08:21:23;;;;;;;2.10;0.80;;;;;;;22.71;71.27;100668.91;5096144;28;20793;-72
2022/07/26 08:23:50;;;;;;;3.70;1.00;;;;;;;22.91;71.33;100660.03;5095609;28;20820;-71
2022/07/26 08:26:17;;;;;;;3.90;1.10;;;;;;;23.06;69.67;100673.97;5095596;28;20523;-71
2022/07/26 08:28:43;;;;;;;6.13;1.10;;;;;;;23.04;69.86;100666.06;5095637;28;20539;-71
2022/07/26 08:31:11;;;;;;;2.40;1.07;;;;;;;22.93;69.72;100665.19;5095285;28;20588;-71
2022/07/26 08:33:38;;;;;;;3.00;1.33;;;;;;;22.87;69.77;100670.25;5095365;28;20455;-72
2022/07/26 08:36:05;;;;;;;5.40;0.80;;;;;;;22.90;71.12;100665.97;5095333;28;20441;-71
2022/07/26 08:38:31;;;;;;;2.20;0.97;;;;;;;22.81;70.49;100668.22;5094909;28;21078;-72
2022/07/26 08:40:59;;;;;;;2.40;0.90;;;;;;;22.78;70.50;100672.53;5095256;28;20488;-71
2022/07/26 08:43:26;;;;;;;2.30;0.90;;;;;;;22.87;68.85;100673.00;5094844;28;20524;-71
2022/07/26 08:45:59;;;;;;;5.37;1.00;;;;;;;23.09;68.39;100678.72;5095430;28;20472;-72
2022/07/26 08:48:27;;;;;;;2.30;0.97;;;;;;;23.32;68.53;100670.97;5094794;28;20592;-71
2022/07/26 08:50:54;;;;;;;2.20;0.70;;;;;;;23.49;64.85;100677.78;5094594;28;20571;-72
2022/07/26 08:53:21;;;;;;;2.67;0.80;;;;;;;23.47;62.19;100684.91;5094900;28;20523;-72
2022/07/26 08:55:48;;;;;;;2.43;0.87;;;;;;;23.49;63.39;100690.81;5094484;28;20505;-72
2022/07/26 08:58:14;;;;;;;2.50;0.80;;;;;;;23.44;62.67;100697.50;5094922;28;20475;-71
2022/07/26 09:00:42;;;;;;;2.60;0.90;;;;;;;23.29;64.04;100702.16;5094910;28;20535;-71
2022/07/26 09:03:24;;;;;;;2.80;1.10;;;;;;;23.15;64.79;100697.34;5094723;28;20791;-72
2022/07/26 09:05:53;;;;;;;3.40;0.63;;;;;;;23.15;65.43;100704.81;5094855;28;20467;-71
2022/07/26 09:08:25;;;;;;;3.63;0.80;;;;;;;23.23;65.91;100702.91;5094364;28;20487;-70
2022/07/26 09:10:51;;;;;;;5.03;0.70;;;;;;;23.33;66.21;100699.41;5094176;28;20583;-73
2022/07/26 09:13:19;;;;;;;2.40;0.90;;;;;;;23.35;64.79;100697.84;5094275;28;20977;-73
2022/07/26 09:15:46;;;;;;;3.20;0.90;;;;;;;23.40;64.54;100691.97;5094491;28;20484;-73
2022/07/26 09:18:26;;;;;;;2.20;0.80;;;;;;;23.39;65.56;100697.88;5094179;28;20523;-74
2022/07/26 09:20:54;;;;;;;5.20;1.07;;;;;;;23.40;64.10;100694.72;5094321;28;20464;-74
2022/07/26 09:23:21;;;;;;;3.90;0.73;;;;;;;23.56;64.06;100690.88;5094349;28;20825;-75
2022/07/26 09:25:48;;;;;;;2.93;0.90;;;;;;;23.58;64.51;100699.56;5094559;28;20447;-75
2022/07/26 09:28:23;;;;;;;2.43;0.90;;;;;;;23.76;63.21;100700.47;5094106;28;20472;-74
2022/07/26 09:30:52;;;;;;;3.83;0.90;;;;;;;24.04;60.59;100699.00;5093801;28;20846;-75
2022/07/26 09:33:19;;;;;;;2.23;0.87;;;;;;;24.21;59.51;100703.00;5094267;28;20436;-75
2022/07/26 09:36:02;;;;;;;2.80;0.90;;;;;;;24.20;58.82;100702.22;5094134;28;20444;-75
2022/07/26 09:38:39;;;;;;;2.30;0.77;;;;;;;24.03;61.13;100705.72;5094051;28;20433;-76
2022/07/26 09:41:17;;;;;;;3.67;1.20;;;;;;;24.01;61.21;100703.34;5094311;28;20463;-77
2022/07/26 09:43:44;;;;;;;3.37;1.10;;;;;;;24.04;60.34;100696.22;5094112;28;20432;-75
2022/07/26 09:46:10;;;;;;;4.30;1.20;;;;;;;24.09;61.78;100704.19;5093911;28;20444;-74
2022/07/26 09:48:38;;;;;;;2.70;1.10;;;;;;;24.08;60.08;100710.88;5094033;28;20509;-75
2022/07/26 09:51:06;;;;;;;2.70;0.80;;;;;;;24.21;61.29;100708.56;5093836;28;20495;-74
2022/07/26 09:53:39;;;;;;;2.30;0.73;;;;;;;24.23;60.84;100707.00;5093762;28;20447;-75
2022/07/26 09:56:06;;;;;;;2.60;1.07;;;;;;;24.25;60.55;100715.69;5093481;28;20436;-74
2022/07/26 09:58:33;;;;;;;3.03;0.93;;;;;;;24.22;60.38;100710.16;5093302;28;20527;-75
2022/07/26 10:01:00;;;;;;;3.03;1.20;;;;;;;24.13;59.51;100722.38;5093147;28;20539;-73
2022/07/26 10:03:27;;;;;;;2.23;0.73;;;;;;;23.99;60.61;100719.53;5093563;28;20448;-74
2022/07/26 10:05:54;;;;;;;5.73;0.90;;;;;;;23.97;61.18;100710.84;5093479;28;20443;-73
2022/07/26 10:08:23;;;;;;;2.40;1.07;;;;;;;24.00;61.62;100715.63;5093576;28;20448;-73
2022/07/26 10:11:00;;;;;;;2.40;0.90;;;;;;;23.91;60.68;100707.69;5092935;28;20500;-73
2022/07/26 10:13:29;;;;;;;2.10;0.70;;;;;;;23.86;61.38;100708.06;5093347;28;20504;-72
2022/07/26 10:15:56;;;;;;;2.57;0.83;;;;;;;23.77;61.63;100707.59;5092965;28;20830;-73
2022/07/26 10:18:42;;;;;;;2.40;1.00;;;;;;;23.85;61.66;100706.44;5093196;28;20456;-73
2022/07/26 10:21:20;;;;;;;2.33;0.90;;;;;;;24.02;61.41;100712.44;5093166;28;20457;-72
2022/07/26 10:23:50;;;;;;;2.37;0.73;;;;;;;24.14;61.39;100714.88;5093201;28;20592;-73
2022/07/26 10:26:36;;;;;;;2.93;0.77;;;;;;;24.18;61.47;100715.69;5092371;28;20452;-72
2022/07/26 10:29:24;;;;;;;2.30;0.73;;;;;;;24.11;61.73;100710.91;5093056;28;20440;-72
2022/07/26 10:32:18;;;;;;;2.60;1.03;;;;;;;24.08;61.76;100705.34;5093104;28;20539;-73
2022/07/26 10:34:46;;;;;;;2.40;0.77;;;;;;;24.25;63.25;100682.47;5093074;28;20841;-73
2022/07/26 10:37:22;;;;;;;2.60;1.20;;;;;;;24.48;62.78;100689.66;5093246;28;20436;-73
2022/07/26 10:40:18;;;;;;;4.33;1.50;;;;;;;24.73;60.78;100701.56;5093003;28;20462;-72
2022/07/26 10:42:45;;;;;;;3.03;1.23;;;;;;;24.74;58.95;100703.13;5092827;28;20544;-72
2022/07/26 10:45:21;;;;;;;2.50;0.97;;;;;;;24.75;60.66;100703.97;5093117;28;20515;-72
2022/07/26 10:48:13;;;;;;;2.93;1.23;;;;;;;24.92;57.16;100706.72;5093773;28;20436;-72
2022/07/26 10:50:41;;;;;;;2.10;0.80;;;;;;;24.99;56.61;100703.16;5093551;28;20571;-72
2022/07/26 10:53:10;;;;;;;2.20;1.07;;;;;;;25.03;55.64;100708.69;5093178;28;20440;-73
2022/07/26 10:55:52;;;;;;;2.37;0.70;;;;;;;25.14;56.11;100704.75;5093041;28;20446;-72
2022/07/26 10:58:20;;;;;;;2.30;0.90;;;;;;;25.27;57.08;100709.88;5093412;28;20463;-71
2022/07/26 11:00:59;;;;;;;2.77;1.17;;;;;;;25.42;55.62;100706.69;5093510;28;20510;-74
2022/07/26 11:03:34;;;;;;;3.10;1.10;;;;;;;25.68;53.71;100710.19;5093057;28;20989;-74
2022/07/26 11:06:09;;;;;;;2.47;1.13;;;;;;;26.13;53.14;100702.91;5093392;28;20524;-70
2022/07/26 11:08:36;;;;;;;2.80;1.00;;;;;;;26.39;53.09;100709.13;5093280;28;20511;-73
2022/07/26 11:11:07;;;;;;;2.30;0.90;;;;;;;26.16;51.88;100707.66;5092784;28;20583;-72
2022/07/26 11:13:35;;;;;;;2.20;0.80;;;;;;;25.95;52.98;100704.97;5093133;28;20507;-71
2022/07/26 11:16:04;;;;;;;2.47;1.00;;;;;;;25.67;53.62;100708.59;5093213;28;20451;-73
2022/07/26 11:18:34;;;;;;;2.67;1.03;;;;;;;25.54;54.10;100704.66;5092933;28;21009;-72
2022/07/26 11:21:09;;;;;;;2.93;1.17;;;;;;;25.40;54.88;100720.16;5093055;28;20456;-72
2022/07/26 11:23:38;;;;;;;2.80;1.13;;;;;;;25.23;55.49;100718.19;5093085;28;20519;-72
2022/07/26 11:26:14;;;;;;;2.83;1.40;;;;;;;25.10;55.90;100715.06;5093412;28;20812;-73